sensor_id;sensor_type;location;lat;lon;timestamp;temperature;humidity
18721;DHT22;9489;50.948;3.114;2023-04-08T00:02:23;8.60;99.90
18721;DHT22;9489;50.948;3.114;2023-04-08T00:04:49;8.60;99.90
18721;DHT22;9489;50.948;3.114;2023-04-08T00:07:15;8.60;99.90
18721;DHT22;9489;50.948;3.114;2023-04-08T00:09:40;8.50;99.90
18721;DHT22;9489;50.948;3.114;2023-04-08T00:12:06;8.40;99.90
18721;DHT22;9489;50.948;3.114;2023-04-08T00:14:31;8.40;99.90
18721;DHT22;9489;50.948;3.114;2023-04-08T00:16:57;8.30;99.90
18721;DHT22;9489;50.948;3.114;2023-04-08T00:19:22;8.30;99.90
18721;DHT22;9489;50.948;3.114;2023-04-08T00:21:49;8.20;99.90
18721;DHT22;9489;50.948;3.114;2023-04-08T00:24:15;8.10;99.90
18721;DHT22;9489;50.948;3.114;2023-04-08T00:26:41;8.10;99.90
18721;DHT22;9489;50.948;3.114;2023-04-08T00:29:06;8.00;99.90
18721;DHT22;9489;50.948;3.114;2023-04-08T00:31:32;7.90;99.90
18721;DHT22;9489;50.948;3.114;2023-04-08T00:33:57;7.80;99.90
18721;DHT22;9489;50.948;3.114;2023-04-08T00:36:23;7.90;99.90
18721;DHT22;9489;50.948;3.114;2023-04-08T00:38:48;7.80;99.90
18721;DHT22;9489;50.948;3.114;2023-04-08T00:41:14;7.80;99.90
18721;DHT22;9489;50.948;3.114;2023-04-08T00:43:40;7.80;99.90
18721;DHT22;9489;50.948;3.114;2023-04-08T00:46:05;7.80;99.90
18721;DHT22;9489;50.948;3.114;2023-04-08T00:48:31;7.80;99.90
18721;DHT22;9489;50.948;3.114;2023-04-08T00:50:57;7.80;99.90
18721;DHT22;9489;50.948;3.114;2023-04-08T00:53:23;7.90;99.90
18721;DHT22;9489;50.948;3.114;2023-04-08T00:55:48;7.90;99.90
18721;DHT22;9489;50.948;3.114;2023-04-08T00:58:15;8.00;99.90
18721;DHT22;9489;50.948;3.114;2023-04-08T01:00:45;7.90;99.90
18721;DHT22;9489;50.948;3.114;2023-04-08T01:03:33;8.00;99.90
18721;DHT22;9489;50.948;3.114;2023-04-08T01:06:15;8.00;99.90
18721;DHT22;9489;50.948;3.114;2023-04-08T01:08:45;8.00;99.90
18721;DHT22;9489;50.948;3.114;2023-04-08T01:11:12;8.00;99.90
18721;DHT22;9489;50.948;3.114;2023-04-08T01:13:39;8.10;99.90
18721;DHT22;9489;50.948;3.114;2023-04-08T01:16:08;8.10;99.90
18721;DHT22;9489;50.948;3.114;2023-04-08T01:18:35;8.10;99.90
18721;DHT22;9489;50.948;3.114;2023-04-08T01:21:02;8.20;99.90
18721;DHT22;9489;50.948;3.114;2023-04-08T01:23:39;8.20;99.90
18721;DHT22;9489;50.948;3.114;2023-04-08T01:26:10;8.20;99.90
18721;DHT22;9489;50.948;3.114;2023-04-08T01:28:37;8.20;99.90
18721;DHT22;9489;50.948;3.114;2023-04-08T01:31:03;8.20;99.90
18721;DHT22;9489;50.948;3.114;2023-04-08T01:33:30;8.20;99.90
18721;DHT22;9489;50.948;3.114;2023-04-08T01:35:56;8.30;99.90
18721;DHT22;9489;50.948;3.114;2023-04-08T01:38:24;8.30;99.90
18721;DHT22;9489;50.948;3.114;2023-04-08T01:40:51;8.30;99.90
18721;DHT22;9489;50.948;3.114;2023-04-08T01:43:18;8.40;99.90
18721;DHT22;9489;50.948;3.114;2023-04-08T01:45:45;8.30;99.90
18721;DHT22;9489;50.948;3.114;2023-04-08T01:48:13;8.40;99.90
18721;DHT22;9489;50.948;3.114;2023-04-08T01:50:43;8.40;99.90
18721;DHT22;9489;50.948;3.114;2023-04-08T01:53:10;8.30;99.90
18721;DHT22;9489;50.948;3.114;2023-04-08T01:55:37;8.30;99.90
18721;DHT22;9489;50.948;3.114;2023-04-08T01:58:06;8.30;99.90
18721;DHT22;9489;50.948;3.114;2023-04-08T02:00:33;8.50;99.90
18721;DHT22;9489;50.948;3.114;2023-04-08T02:03:00;8.50;99.90
18721;DHT22;9489;50.948;3.114;2023-04-08T02:05:27;8.50;99.90
18721;DHT22;9489;50.948;3.114;2023-04-08T02:07:52;8.50;99.90
18721;DHT22;9489;50.948;3.114;2023-04-08T02:10:18;8.50;99.90
18721;DHT22;9489;50.948;3.114;2023-04-08T02:12:44;8.40;99.90
18721;DHT22;9489;50.948;3.114;2023-04-08T02:15:11;8.50;99.90
18721;DHT22;9489;50.948;3.114;2023-04-08T02:17:49;8.50;99.90
18721;DHT22;9489;50.948;3.114;2023-04-08T02:20:17;8.50;99.90
18721;DHT22;9489;50.948;3.114;2023-04-08T02:22:58;8.50;99.90
18721;DHT22;9489;50.948;3.114;2023-04-08T02:25:28;8.50;99.90
18721;DHT22;9489;50.948;3.114;2023-04-08T02:27:55;8.50;99.90
18721;DHT22;9489;50.948;3.114;2023-04-08T02:30:22;8.50;99.90
18721;DHT22;9489;50.948;3.114;2023-04-08T02:32:50;8.40;99.90
18721;DHT22;9489;50.948;3.114;2023-04-08T02:35:18;8.50;99.90
18721;DHT22;9489;50.948;3.114;2023-04-08T02:37:45;8.50;99.90
18721;DHT22;9489;50.948;3.114;2023-04-08T02:42:47;8.60;99.90
18721;DHT22;9489;50.948;3.114;2023-04-08T02:45:13;8.60;99.90
18721;DHT22;9489;50.948;3.114;2023-04-08T02:47:38;8.60;99.90
18721;DHT22;9489;50.948;3.114;2023-04-08T02:50:04;8.70;99.90
18721;DHT22;9489;50.948;3.114;2023-04-08T02:52:30;8.70;99.90
18721;DHT22;9489;50.948;3.114;2023-04-08T02:54:55;8.70;99.90
18721;DHT22;9489;50.948;3.114;2023-04-08T02:57:21;8.70;99.90
18721;DHT22;9489;50.948;3.114;2023-04-08T02:59:46;8.70;99.90
18721;DHT22;9489;50.948;3.114;2023-04-08T03:02:12;8.90;99.90
18721;DHT22;9489;50.948;3.114;2023-04-08T03:04:37;8.80;99.90
18721;DHT22;9489;50.948;3.114;2023-04-08T03:07:03;8.90;99.90
18721;DHT22;9489;50.948;3.114;2023-04-08T03:09:28;8.90;99.90
18721;DHT22;9489;50.948;3.114;2023-04-08T03:11:54;8.80;99.90
18721;DHT22;9489;50.948;3.114;2023-04-08T03:14:20;8.80;99.90
18721;DHT22;9489;50.948;3.114;2023-04-08T03:16:46;8.80;99.90
18721;DHT22;9489;50.948;3.114;2023-04-08T03:19:12;8.70;99.90
18721;DHT22;9489;50.948;3.114;2023-04-08T03:21:38;8.60;99.90
18721;DHT22;9489;50.948;3.114;2023-04-08T03:24:04;8.60;99.90
18721;DHT22;9489;50.948;3.114;2023-04-08T03:26:29;8.60;99.90
18721;DHT22;9489;50.948;3.114;2023-04-08T03:28:55;8.70;99.90
18721;DHT22;9489;50.948;3.114;2023-04-08T03:31:20;8.60;99.90
18721;DHT22;9489;50.948;3.114;2023-04-08T03:33:46;8.70;99.90
18721;DHT22;9489;50.948;3.114;2023-04-08T03:36:12;8.70;99.90
18721;DHT22;9489;50.948;3.114;2023-04-08T03:38:37;8.70;99.90
18721;DHT22;9489;50.948;3.114;2023-04-08T03:41:03;8.70;99.90
18721;DHT22;9489;50.948;3.114;2023-04-08T03:43:28;8.70;99.90
18721;DHT22;9489;50.948;3.114;2023-04-08T03:45:55;8.70;99.90
18721;DHT22;9489;50.948;3.114;2023-04-08T03:48:21;8.70;99.90
18721;DHT22;9489;50.948;3.114;2023-04-08T03:50:47;8.70;99.90
18721;DHT22;9489;50.948;3.114;2023-04-08T03:53:12;8.70;99.90
18721;DHT22;9489;50.948;3.114;2023-04-08T03:55:38;8.70;99.90
18721;DHT22;9489;50.948;3.114;2023-04-08T03:58:04;8.60;99.90
18721;DHT22;9489;50.948;3.114;2023-04-08T04:00:30;8.70;99.90
18721;DHT22;9489;50.948;3.114;2023-04-08T04:02:56;8.60;99.90
18721;DHT22;9489;50.948;3.114;2023-04-08T04:05:21;8.60;99.90
18721;DHT22;9489;50.948;3.114;2023-04-08T04:07:47;8.70;99.90
18721;DHT22;9489;50.948;3.114;2023-04-08T04:10:12;8.70;99.90
18721;DHT22;9489;50.948;3.114;2023-04-08T04:12:38;8.60;99.90
18721;DHT22;9489;50.948;3.114;2023-04-08T04:15:04;8.60;99.90
18721;DHT22;9489;50.948;3.114;2023-04-08T04:17:30;8.60;99.90
18721;DHT22;9489;50.948;3.114;2023-04-08T04:19:55;8.60;99.90
18721;DHT22;9489;50.948;3.114;2023-04-08T04:22:21;8.60;99.90
18721;DHT22;9489;50.948;3.114;2023-04-08T04:24:47;8.60;99.90
18721;DHT22;9489;50.948;3.114;2023-04-08T04:27:13;8.60;99.90
18721;DHT22;9489;50.948;3.114;2023-04-08T04:29:39;8.70;99.90
18721;DHT22;9489;50.948;3.114;2023-04-08T04:32:05;8.70;99.90
18721;DHT22;9489;50.948;3.114;2023-04-08T04:34:31;8.70;99.90
18721;DHT22;9489;50.948;3.114;2023-04-08T04:36:56;8.70;99.90
18721;DHT22;9489;50.948;3.114;2023-04-08T04:39:22;8.60;99.90
18721;DHT22;9489;50.948;3.114;2023-04-08T04:41:47;8.60;99.90
18721;DHT22;9489;50.948;3.114;2023-04-08T04:44:13;8.60;99.90
18721;DHT22;9489;50.948;3.114;2023-04-08T04:46:39;8.70;99.90
18721;DHT22;9489;50.948;3.114;2023-04-08T04:49:05;8.70;99.90
18721;DHT22;9489;50.948;3.114;2023-04-08T04:51:31;8.70;99.90
18721;DHT22;9489;50.948;3.114;2023-04-08T04:53:57;8.70;99.90
18721;DHT22;9489;50.948;3.114;2023-04-08T04:56:23;8.70;99.90
18721;DHT22;9489;50.948;3.114;2023-04-08T04:58:49;8.70;99.90
18721;DHT22;9489;50.948;3.114;2023-04-08T05:01:15;8.70;99.90
18721;DHT22;9489;50.948;3.114;2023-04-08T05:03:40;8.60;99.90
18721;DHT22;9489;50.948;3.114;2023-04-08T05:06:06;8.60;99.90
18721;DHT22;9489;50.948;3.114;2023-04-08T05:08:31;8.60;99.90
18721;DHT22;9489;50.948;3.114;2023-04-08T05:10:57;8.60;99.90
18721;DHT22;9489;50.948;3.114;2023-04-08T05:13:29;8.60;99.90
18721;DHT22;9489;50.948;3.114;2023-04-08T05:15:56;8.60;99.90
18721;DHT22;9489;50.948;3.114;2023-04-08T05:18:21;8.70;99.90
18721;DHT22;9489;50.948;3.114;2023-04-08T05:20:47;8.60;99.90
18721;DHT22;9489;50.948;3.114;2023-04-08T05:23:13;8.60;99.90
18721;DHT22;9489;50.948;3.114;2023-04-08T05:25:38;8.60;99.90
18721;DHT22;9489;50.948;3.114;2023-04-08T05:28:04;8.70;99.90
18721;DHT22;9489;50.948;3.114;2023-04-08T05:30:30;8.80;99.90
18721;DHT22;9489;50.948;3.114;2023-04-08T05:32:55;8.70;99.90
18721;DHT22;9489;50.948;3.114;2023-04-08T05:35:21;8.70;99.90
18721;DHT22;9489;50.948;3.114;2023-04-08T05:37:46;8.70;99.90
18721;DHT22;9489;50.948;3.114;2023-04-08T05:40:12;8.80;99.90
18721;DHT22;9489;50.948;3.114;2023-04-08T05:42:38;8.90;99.90
18721;DHT22;9489;50.948;3.114;2023-04-08T05:45:04;8.90;99.90
18721;DHT22;9489;50.948;3.114;2023-04-08T05:47:29;8.80;99.90
18721;DHT22;9489;50.948;3.114;2023-04-08T05:49:55;8.70;99.90
18721;DHT22;9489;50.948;3.114;2023-04-08T05:52:21;8.70;99.90
18721;DHT22;9489;50.948;3.114;2023-04-08T05:54:46;8.80;99.90
18721;DHT22;9489;50.948;3.114;2023-04-08T05:57:12;8.80;99.90
18721;DHT22;9489;50.948;3.114;2023-04-08T05:59:37;8.80;99.90
18721;DHT22;9489;50.948;3.114;2023-04-08T06:02:03;8.80;99.90
18721;DHT22;9489;50.948;3.114;2023-04-08T06:04:28;8.90;99.90
18721;DHT22;9489;50.948;3.114;2023-04-08T06:06:54;9.00;99.90
18721;DHT22;9489;50.948;3.114;2023-04-08T06:09:24;8.90;99.90
18721;DHT22;9489;50.948;3.114;2023-04-08T06:11:50;8.90;99.90
18721;DHT22;9489;50.948;3.114;2023-04-08T06:14:16;8.90;99.90
18721;DHT22;9489;50.948;3.114;2023-04-08T06:16:41;8.90;99.90
18721;DHT22;9489;50.948;3.114;2023-04-08T06:19:07;8.90;99.90
18721;DHT22;9489;50.948;3.114;2023-04-08T06:21:32;8.90;99.90
18721;DHT22;9489;50.948;3.114;2023-04-08T06:23:58;8.90;99.90
18721;DHT22;9489;50.948;3.114;2023-04-08T06:26:23;8.90;99.90
18721;DHT22;9489;50.948;3.114;2023-04-08T06:28:49;8.90;99.90
18721;DHT22;9489;50.948;3.114;2023-04-08T06:31:14;9.00;99.90
18721;DHT22;9489;50.948;3.114;2023-04-08T06:33:40;9.00;99.90
18721;DHT22;9489;50.948;3.114;2023-04-08T06:36:06;9.00;99.90
18721;DHT22;9489;50.948;3.114;2023-04-08T06:38:33;9.10;99.90
18721;DHT22;9489;50.948;3.114;2023-04-08T06:41:02;9.20;99.90
18721;DHT22;9489;50.948;3.114;2023-04-08T06:43:28;9.20;99.90
18721;DHT22;9489;50.948;3.114;2023-04-08T06:45:54;9.20;99.90
18721;DHT22;9489;50.948;3.114;2023-04-08T06:48:20;9.20;99.90
18721;DHT22;9489;50.948;3.114;2023-04-08T06:50:48;9.10;99.90
18721;DHT22;9489;50.948;3.114;2023-04-08T06:53:13;9.20;99.90
18721;DHT22;9489;50.948;3.114;2023-04-08T06:55:39;9.20;99.90
18721;DHT22;9489;50.948;3.114;2023-04-08T06:58:05;9.20;99.90
18721;DHT22;9489;50.948;3.114;2023-04-08T07:00:31;9.30;99.90
18721;DHT22;9489;50.948;3.114;2023-04-08T07:02:56;9.30;99.90
18721;DHT22;9489;50.948;3.114;2023-04-08T07:05:22;9.30;99.90
18721;DHT22;9489;50.948;3.114;2023-04-08T07:07:47;9.40;99.90
18721;DHT22;9489;50.948;3.114;2023-04-08T07:10:13;9.40;99.90
18721;DHT22;9489;50.948;3.114;2023-04-08T07:12:39;9.50;99.90
18721;DHT22;9489;50.948;3.114;2023-04-08T07:15:05;9.50;99.90
18721;DHT22;9489;50.948;3.114;2023-04-08T07:17:31;9.60;99.90
18721;DHT22;9489;50.948;3.114;2023-04-08T07:19:56;9.70;99.90
18721;DHT22;9489;50.948;3.114;2023-04-08T07:22:22;9.80;99.90
18721;DHT22;9489;50.948;3.114;2023-04-08T07:24:47;10.00;99.90
18721;DHT22;9489;50.948;3.114;2023-04-08T07:27:14;10.20;99.90
18721;DHT22;9489;50.948;3.114;2023-04-08T07:29:41;10.30;99.90
18721;DHT22;9489;50.948;3.114;2023-04-08T07:32:06;10.50;99.90
18721;DHT22;9489;50.948;3.114;2023-04-08T07:34:34;10.80;99.90
18721;DHT22;9489;50.948;3.114;2023-04-08T07:37:00;11.00;99.90
18721;DHT22;9489;50.948;3.114;2023-04-08T07:39:25;11.30;99.90
18721;DHT22;9489;50.948;3.114;2023-04-08T07:41:51;11.50;99.90
18721;DHT22;9489;50.948;3.114;2023-04-08T07:44:17;11.50;99.90
18721;DHT22;9489;50.948;3.114;2023-04-08T07:46:44;11.80;99.90
18721;DHT22;9489;50.948;3.114;2023-04-08T07:49:10;11.80;99.90
18721;DHT22;9489;50.948;3.114;2023-04-08T07:51:36;11.90;99.90
18721;DHT22;9489;50.948;3.114;2023-04-08T07:54:02;12.00;99.90
18721;DHT22;9489;50.948;3.114;2023-04-08T07:56:28;12.00;99.90
18721;DHT22;9489;50.948;3.114;2023-04-08T07:58:53;12.00;99.90
18721;DHT22;9489;50.948;3.114;2023-04-08T08:01:20;12.10;99.90
18721;DHT22;9489;50.948;3.114;2023-04-08T08:03:50;12.10;99.90
18721;DHT22;9489;50.948;3.114;2023-04-08T08:06:16;12.40;99.90
18721;DHT22;9489;50.948;3.114;2023-04-08T08:08:42;12.30;99.90
18721;DHT22;9489;50.948;3.114;2023-04-08T08:11:07;12.40;99.90
18721;DHT22;9489;50.948;3.114;2023-04-08T08:13:33;12.40;99.90
18721;DHT22;9489;50.948;3.114;2023-04-08T08:15:59;12.50;99.90
18721;DHT22;9489;50.948;3.114;2023-04-08T08:18:24;12.70;99.90
18721;DHT22;9489;50.948;3.114;2023-04-08T08:20:50;13.00;99.90
18721;DHT22;9489;50.948;3.114;2023-04-08T08:23:16;13.00;99.90
18721;DHT22;9489;50.948;3.114;2023-04-08T08:25:41;13.20;99.90
18721;DHT22;9489;50.948;3.114;2023-04-08T08:28:07;13.20;99.90
18721;DHT22;9489;50.948;3.114;2023-04-08T08:30:32;13.60;99.90
18721;DHT22;9489;50.948;3.114;2023-04-08T08:32:58;14.00;99.90
18721;DHT22;9489;50.948;3.114;2023-04-08T08:35:25;14.60;99.90
18721;DHT22;9489;50.948;3.114;2023-04-08T08:37:50;15.20;99.90
18721;DHT22;9489;50.948;3.114;2023-04-08T08:40:16;15.60;99.90
18721;DHT22;9489;50.948;3.114;2023-04-08T08:42:49;15.90;99.90
18721;DHT22;9489;50.948;3.114;2023-04-08T08:45:18;16.00;99.90
18721;DHT22;9489;50.948;3.114;2023-04-08T08:47:43;16.30;99.90
18721;DHT22;9489;50.948;3.114;2023-04-08T08:50:09;16.50;99.90
18721;DHT22;9489;50.948;3.114;2023-04-08T08:52:35;16.80;99.90
18721;DHT22;9489;50.948;3.114;2023-04-08T08:55:00;17.00;99.90
18721;DHT22;9489;50.948;3.114;2023-04-08T08:57:26;17.20;99.90
18721;DHT22;9489;50.948;3.114;2023-04-08T08:59:52;17.30;99.90
18721;DHT22;9489;50.948;3.114;2023-04-08T09:02:24;17.80;99.90
18721;DHT22;9489;50.948;3.114;2023-04-08T09:04:59;18.20;99.90
18721;DHT22;9489;50.948;3.114;2023-04-08T09:07:26;17.90;99.90
18721;DHT22;9489;50.948;3.114;2023-04-08T09:09:54;18.10;99.90
18721;DHT22;9489;50.948;3.114;2023-04-08T09:12:20;18.00;99.90
18721;DHT22;9489;50.948;3.114;2023-04-08T09:14:46;18.10;99.90
18721;DHT22;9489;50.948;3.114;2023-04-08T09:17:12;18.70;99.90
18721;DHT22;9489;50.948;3.114;2023-04-08T09:19:38;19.20;99.90
18721;DHT22;9489;50.948;3.114;2023-04-08T09:22:11;19.60;99.90
18721;DHT22;9489;50.948;3.114;2023-04-08T09:24:37;20.00;99.90
18721;DHT22;9489;50.948;3.114;2023-04-08T09:27:03;20.10;99.90
18721;DHT22;9489;50.948;3.114;2023-04-08T09:29:29;20.10;99.90
18721;DHT22;9489;50.948;3.114;2023-04-08T09:31:57;19.90;99.90
18721;DHT22;9489;50.948;3.114;2023-04-08T09:34:23;20.20;99.90
18721;DHT22;9489;50.948;3.114;2023-04-08T09:36:50;20.00;99.90
18721;DHT22;9489;50.948;3.114;2023-04-08T09:39:16;20.20;99.90
18721;DHT22;9489;50.948;3.114;2023-04-08T09:41:42;20.20;99.90
18721;DHT22;9489;50.948;3.114;2023-04-08T09:44:09;19.40;99.90
18721;DHT22;9489;50.948;3.114;2023-04-08T09:51:51;18.20;99.90
18721;DHT22;9489;50.948;3.114;2023-04-08T09:54:20;18.10;99.90
18721;DHT22;9489;50.948;3.114;2023-04-08T09:57:02;17.90;99.90
18721;DHT22;9489;50.948;3.114;2023-04-08T09:59:30;17.40;99.90
18721;DHT22;9489;50.948;3.114;2023-04-08T10:02:00;18.10;99.90
18721;DHT22;9489;50.948;3.114;2023-04-08T10:04:29;19.00;99.90
18721;DHT22;9489;50.948;3.114;2023-04-08T10:06:58;19.50;99.90
18721;DHT22;9489;50.948;3.114;2023-04-08T10:09:27;19.50;99.90
18721;DHT22;9489;50.948;3.114;2023-04-08T10:11:54;19.70;99.90
18721;DHT22;9489;50.948;3.114;2023-04-08T10:14:20;19.40;99.90
18721;DHT22;9489;50.948;3.114;2023-04-08T10:16:46;18.90;99.90
18721;DHT22;9489;50.948;3.114;2023-04-08T10:19:38;18.20;99.90
18721;DHT22;9489;50.948;3.114;2023-04-08T10:27:40;17.00;99.90
18721;DHT22;9489;50.948;3.114;2023-04-08T10:32:54;16.10;99.90
18721;DHT22;9489;50.948;3.114;2023-04-08T10:38:18;15.60;99.90
18721;DHT22;9489;50.948;3.114;2023-04-08T10:40:44;15.60;99.90
18721;DHT22;9489;50.948;3.114;2023-04-08T10:43:11;15.60;99.90
18721;DHT22;9489;50.948;3.114;2023-04-08T10:45:38;15.40;99.90
18721;DHT22;9489;50.948;3.114;2023-04-08T10:48:18;15.40;99.90
18721;DHT22;9489;50.948;3.114;2023-04-08T10:50:54;15.10;99.90
18721;DHT22;9489;50.948;3.114;2023-04-08T10:53:35;15.20;99.90
18721;DHT22;9489;50.948;3.114;2023-04-08T10:56:08;15.10;99.90
18721;DHT22;9489;50.948;3.114;2023-04-08T10:58:47;15.00;99.90
18721;DHT22;9489;50.948;3.114;2023-04-08T11:01:13;15.00;99.90
18721;DHT22;9489;50.948;3.114;2023-04-08T11:03:38;15.10;99.90
18721;DHT22;9489;50.948;3.114;2023-04-08T11:06:04;15.20;99.90
18721;DHT22;9489;50.948;3.114;2023-04-08T11:08:31;15.20;99.90
18721;DHT22;9489;50.948;3.114;2023-04-08T11:10:57;15.50;99.90
18721;DHT22;9489;50.948;3.114;2023-04-08T11:13:23;15.70;99.90
18721;DHT22;9489;50.948;3.114;2023-04-08T11:15:49;16.00;99.90
18721;DHT22;9489;50.948;3.114;2023-04-08T11:18:15;15.90;99.90
18721;DHT22;9489;50.948;3.114;2023-04-08T11:20:43;16.30;99.90
18721;DHT22;9489;50.948;3.114;2023-04-08T11:23:15;16.40;99.90
18721;DHT22;9489;50.948;3.114;2023-04-08T11:25:41;16.40;99.90
18721;DHT22;9489;50.948;3.114;2023-04-08T11:28:07;16.50;99.90
18721;DHT22;9489;50.948;3.114;2023-04-08T11:30:34;16.30;99.90
18721;DHT22;9489;50.948;3.114;2023-04-08T11:33:00;16.20;99.90
18721;DHT22;9489;50.948;3.114;2023-04-08T11:35:29;16.00;99.90
18721;DHT22;9489;50.948;3.114;2023-04-08T11:37:56;15.50;99.90
18721;DHT22;9489;50.948;3.114;2023-04-08T11:40:22;15.40;99.90
18721;DHT22;9489;50.948;3.114;2023-04-08T11:42:48;15.40;99.90
18721;DHT22;9489;50.948;3.114;2023-04-08T11:45:17;15.40;99.90
18721;DHT22;9489;50.948;3.114;2023-04-08T11:47:43;15.30;99.90
18721;DHT22;9489;50.948;3.114;2023-04-08T11:50:09;15.10;99.90
18721;DHT22;9489;50.948;3.114;2023-04-08T11:52:47;14.90;99.90
18721;DHT22;9489;50.948;3.114;2023-04-08T11:55:32;14.80;99.90
18721;DHT22;9489;50.948;3.114;2023-04-08T11:58:02;14.60;99.90
18721;DHT22;9489;50.948;3.114;2023-04-08T12:00:28;14.50;99.90
18721;DHT22;9489;50.948;3.114;2023-04-08T12:02:55;14.20;99.90
18721;DHT22;9489;50.948;3.114;2023-04-08T12:05:21;14.10;99.90
18721;DHT22;9489;50.948;3.114;2023-04-08T12:07:46;14.00;99.90
18721;DHT22;9489;50.948;3.114;2023-04-08T12:10:12;14.00;99.90
18721;DHT22;9489;50.948;3.114;2023-04-08T12:12:39;14.00;99.90
18721;DHT22;9489;50.948;3.114;2023-04-08T12:15:05;13.70;99.90
18721;DHT22;9489;50.948;3.114;2023-04-08T12:17:32;13.70;99.90
18721;DHT22;9489;50.948;3.114;2023-04-08T12:19:58;13.60;99.90
18721;DHT22;9489;50.948;3.114;2023-04-08T12:22:24;13.40;99.90
18721;DHT22;9489;50.948;3.114;2023-04-08T12:24:50;13.30;99.90
18721;DHT22;9489;50.948;3.114;2023-04-08T12:27:15;13.30;99.90
18721;DHT22;9489;50.948;3.114;2023-04-08T12:29:41;13.30;99.90
18721;DHT22;9489;50.948;3.114;2023-04-08T12:32:06;13.40;99.90
18721;DHT22;9489;50.948;3.114;2023-04-08T12:34:32;13.40;99.90
18721;DHT22;9489;50.948;3.114;2023-04-08T12:36:58;13.50;99.90
18721;DHT22;9489;50.948;3.114;2023-04-08T12:39:23;13.50;99.90
18721;DHT22;9489;50.948;3.114;2023-04-08T12:41:49;13.50;99.90
18721;DHT22;9489;50.948;3.114;2023-04-08T12:44:15;13.60;99.90
18721;DHT22;9489;50.948;3.114;2023-04-08T12:46:41;13.70;99.90
18721;DHT22;9489;50.948;3.114;2023-04-08T12:49:06;13.60;99.90
18721;DHT22;9489;50.948;3.114;2023-04-08T12:51:33;13.60;99.90
18721;DHT22;9489;50.948;3.114;2023-04-08T12:53:59;13.60;99.90
18721;DHT22;9489;50.948;3.114;2023-04-08T12:56:25;13.70;99.90
18721;DHT22;9489;50.948;3.114;2023-04-08T12:58:51;13.80;99.90
18721;DHT22;9489;50.948;3.114;2023-04-08T13:01:17;13.90;99.90
18721;DHT22;9489;50.948;3.114;2023-04-08T13:03:42;13.70;99.90
18721;DHT22;9489;50.948;3.114;2023-04-08T13:06:08;13.70;99.90
18721;DHT22;9489;50.948;3.114;2023-04-08T13:08:33;13.60;99.90
18721;DHT22;9489;50.948;3.114;2023-04-08T13:10:59;13.40;99.90
18721;DHT22;9489;50.948;3.114;2023-04-08T13:13:24;13.60;99.90
18721;DHT22;9489;50.948;3.114;2023-04-08T13:15:50;13.80;99.90
18721;DHT22;9489;50.948;3.114;2023-04-08T13:18:16;13.90;99.90
18721;DHT22;9489;50.948;3.114;2023-04-08T13:20:42;13.90;99.90
18721;DHT22;9489;50.948;3.114;2023-04-08T13:23:07;14.00;99.90
18721;DHT22;9489;50.948;3.114;2023-04-08T13:25:33;14.00;99.90
18721;DHT22;9489;50.948;3.114;2023-04-08T13:27:58;14.10;99.90
18721;DHT22;9489;50.948;3.114;2023-04-08T13:30:24;14.10;99.90
18721;DHT22;9489;50.948;3.114;2023-04-08T13:32:50;14.10;99.90
18721;DHT22;9489;50.948;3.114;2023-04-08T13:35:15;14.10;99.90
18721;DHT22;9489;50.948;3.114;2023-04-08T13:37:41;14.10;99.90
18721;DHT22;9489;50.948;3.114;2023-04-08T13:40:07;13.90;99.90
18721;DHT22;9489;50.948;3.114;2023-04-08T13:42:34;13.60;99.90
18721;DHT22;9489;50.948;3.114;2023-04-08T13:45:00;13.60;99.90
18721;DHT22;9489;50.948;3.114;2023-04-08T13:47:25;13.60;99.90
18721;DHT22;9489;50.948;3.114;2023-04-08T13:49:51;13.60;99.90
18721;DHT22;9489;50.948;3.114;2023-04-08T13:52:17;13.70;99.90
18721;DHT22;9489;50.948;3.114;2023-04-08T13:54:43;13.70;99.90
18721;DHT22;9489;50.948;3.114;2023-04-08T13:57:08;13.70;99.90
18721;DHT22;9489;50.948;3.114;2023-04-08T13:59:34;13.70;99.90
18721;DHT22;9489;50.948;3.114;2023-04-08T14:02:00;13.60;99.90
18721;DHT22;9489;50.948;3.114;2023-04-08T14:04:26;13.60;99.90
18721;DHT22;9489;50.948;3.114;2023-04-08T14:06:51;13.70;99.90
18721;DHT22;9489;50.948;3.114;2023-04-08T14:09:18;13.70;99.90
18721;DHT22;9489;50.948;3.114;2023-04-08T14:11:43;13.70;99.90
18721;DHT22;9489;50.948;3.114;2023-04-08T14:14:09;13.80;99.90
18721;DHT22;9489;50.948;3.114;2023-04-08T14:16:34;13.90;99.90
18721;DHT22;9489;50.948;3.114;2023-04-08T14:19:01;14.00;99.90
18721;DHT22;9489;50.948;3.114;2023-04-08T14:21:27;13.90;99.90
18721;DHT22;9489;50.948;3.114;2023-04-08T14:23:53;13.90;99.90
18721;DHT22;9489;50.948;3.114;2023-04-08T14:26:19;14.00;99.90
18721;DHT22;9489;50.948;3.114;2023-04-08T14:28:45;14.10;99.90
18721;DHT22;9489;50.948;3.114;2023-04-08T14:31:12;14.30;99.90
18721;DHT22;9489;50.948;3.114;2023-04-08T14:33:38;14.30;99.90
18721;DHT22;9489;50.948;3.114;2023-04-08T14:36:04;14.40;99.90
18721;DHT22;9489;50.948;3.114;2023-04-08T14:38:30;14.50;99.90
18721;DHT22;9489;50.948;3.114;2023-04-08T14:40:56;14.60;99.90
18721;DHT22;9489;50.948;3.114;2023-04-08T14:43:21;14.70;99.90
18721;DHT22;9489;50.948;3.114;2023-04-08T14:45:48;14.70;99.90
18721;DHT22;9489;50.948;3.114;2023-04-08T14:48:14;14.90;99.90
18721;DHT22;9489;50.948;3.114;2023-04-08T14:50:40;15.10;99.90
18721;DHT22;9489;50.948;3.114;2023-04-08T14:53:05;15.20;99.90
18721;DHT22;9489;50.948;3.114;2023-04-08T14:55:31;15.10;99.90
18721;DHT22;9489;50.948;3.114;2023-04-08T14:57:56;14.90;99.90
18721;DHT22;9489;50.948;3.114;2023-04-08T15:00:22;14.80;99.90
18721;DHT22;9489;50.948;3.114;2023-04-08T15:02:48;14.80;99.90
18721;DHT22;9489;50.948;3.114;2023-04-08T15:05:13;14.70;99.90
18721;DHT22;9489;50.948;3.114;2023-04-08T15:07:39;14.60;99.90
18721;DHT22;9489;50.948;3.114;2023-04-08T15:10:05;14.60;99.90
18721;DHT22;9489;50.948;3.114;2023-04-08T15:12:31;14.60;99.90
18721;DHT22;9489;50.948;3.114;2023-04-08T15:14:57;14.60;99.90
18721;DHT22;9489;50.948;3.114;2023-04-08T15:17:23;14.70;99.90
18721;DHT22;9489;50.948;3.114;2023-04-08T15:19:50;14.70;99.90
18721;DHT22;9489;50.948;3.114;2023-04-08T15:22:16;14.80;99.90
18721;DHT22;9489;50.948;3.114;2023-04-08T15:24:41;14.90;99.90
18721;DHT22;9489;50.948;3.114;2023-04-08T15:27:07;14.90;99.90
18721;DHT22;9489;50.948;3.114;2023-04-08T15:29:32;15.10;99.90
18721;DHT22;9489;50.948;3.114;2023-04-08T15:31:58;15.20;99.90
18721;DHT22;9489;50.948;3.114;2023-04-08T15:34:24;15.40;99.90
18721;DHT22;9489;50.948;3.114;2023-04-08T15:36:49;15.20;99.90
18721;DHT22;9489;50.948;3.114;2023-04-08T15:39:15;15.30;99.90
18721;DHT22;9489;50.948;3.114;2023-04-08T15:41:40;15.30;99.90
18721;DHT22;9489;50.948;3.114;2023-04-08T15:44:06;15.10;99.90
18721;DHT22;9489;50.948;3.114;2023-04-08T15:46:32;15.10;99.90
18721;DHT22;9489;50.948;3.114;2023-04-08T15:48:57;14.90;99.90
18721;DHT22;9489;50.948;3.114;2023-04-08T15:51:23;14.80;99.90
18721;DHT22;9489;50.948;3.114;2023-04-08T15:53:48;14.60;99.90
18721;DHT22;9489;50.948;3.114;2023-04-08T15:56:16;14.60;99.90
18721;DHT22;9489;50.948;3.114;2023-04-08T15:58:43;14.50;99.90
18721;DHT22;9489;50.948;3.114;2023-04-08T16:01:09;14.50;99.90
18721;DHT22;9489;50.948;3.114;2023-04-08T16:03:35;14.50;99.90
18721;DHT22;9489;50.948;3.114;2023-04-08T16:06:00;14.60;99.90
18721;DHT22;9489;50.948;3.114;2023-04-08T16:08:26;14.50;99.90